sensor_id;sensor_type;location;lat;lon;timestamp;P1;durP1;ratioP1;P2;durP2;ratioP2
55330;SDS011;58851;42.984;20.336;2023-05-10T00:00:07;13.55;;;9.18;;
55330;SDS011;58851;42.984;20.336;2023-05-10T00:02:34;15.32;;;9.57;;
55330;SDS011;58851;42.984;20.336;2023-05-10T00:05:00;13.77;;;8.27;;
55330;SDS011;58851;42.984;20.336;2023-05-10T00:07:27;11.27;;;8.63;;
55330;SDS011;58851;42.984;20.336;2023-05-10T00:09:52;15.07;;;9.15;;
55330;SDS011;58851;42.984;20.336;2023-05-10T00:12:18;15.50;;;8.18;;
55330;SDS011;58851;42.984;20.336;2023-05-10T00:14:44;16.02;;;9.57;;
55330;SDS011;58851;42.984;20.336;2023-05-10T00:17:10;13.05;;;8.93;;
55330;SDS011;58851;42.984;20.336;2023-05-10T00:19:35;14.77;;;9.15;;
55330;SDS011;58851;42.984;20.336;2023-05-10T00:22:01;12.02;;;7.13;;
55330;SDS011;58851;42.984;20.336;2023-05-10T00:24:28;13.48;;;6.78;;
55330;SDS011;58851;42.984;20.336;2023-05-10T00:26:53;11.75;;;6.82;;
55330;SDS011;58851;42.984;20.336;2023-05-10T00:29:19;9.60;;;6.85;;
55330;SDS011;58851;42.984;20.336;2023-05-10T00:31:45;12.23;;;7.90;;
55330;SDS011;58851;42.984;20.336;2023-05-10T00:34:11;18.55;;;9.20;;
55330;SDS011;58851;42.984;20.336;2023-05-10T00:36:36;17.35;;;8.40;;
55330;SDS011;58851;42.984;20.336;2023-05-10T00:39:02;14.35;;;6.90;;
55330;SDS011;58851;42.984;20.336;2023-05-10T00:41:28;12.32;;;5.85;;
55330;SDS011;58851;42.984;20.336;2023-05-10T00:43:57;9.98;;;5.90;;
55330;SDS011;58851;42.984;20.336;2023-05-10T00:46:23;7.35;;;4.68;;
55330;SDS011;58851;42.984;20.336;2023-05-10T00:48:50;8.85;;;5.00;;
55330;SDS011;58851;42.984;20.336;2023-05-10T00:51:17;7.70;;;5.00;;
55330;SDS011;58851;42.984;20.336;2023-05-10T00:53:43;6.22;;;4.10;;
55330;SDS011;58851;42.984;20.336;2023-05-10T00:56:10;9.68;;;4.97;;
55330;SDS011;58851;42.984;20.336;2023-05-10T00:58:37;8.07;;;5.22;;
55330;SDS011;58851;42.984;20.336;2023-05-10T01:01:04;7.78;;;4.78;;
55330;SDS011;58851;42.984;20.336;2023-05-10T01:03:31;8.52;;;4.90;;
55330;SDS011;58851;42.984;20.336;2023-05-10T01:05:57;5.65;;;3.95;;
55330;SDS011;58851;42.984;20.336;2023-05-10T01:08:23;6.57;;;4.38;;
55330;SDS011;58851;42.984;20.336;2023-05-10T01:10:50;7.78;;;4.28;;
55330;SDS011;58851;42.984;20.336;2023-05-10T01:13:24;6.55;;;4.47;;
55330;SDS011;58851;42.984;20.336;2023-05-10T01:16:03;6.60;;;4.45;;
55330;SDS011;58851;42.984;20.336;2023-05-10T01:18:30;11.73;;;6.25;;
55330;SDS011;58851;42.984;20.336;2023-05-10T01:21:07;8.23;;;5.63;;
55330;SDS011;58851;42.984;20.336;2023-05-10T01:29:11;8.23;;;5.30;;
55330;SDS011;58851;42.984;20.336;2023-05-10T01:35:03;7.68;;;5.35;;
55330;SDS011;58851;42.984;20.336;2023-05-10T01:37:45;11.88;;;5.60;;
55330;SDS011;58851;42.984;20.336;2023-05-10T01:43:08;7.05;;;4.57;;
55330;SDS011;58851;42.984;20.336;2023-05-10T01:48:37;7.55;;;4.40;;
55330;SDS011;58851;42.984;20.336;2023-05-10T01:51:11;10.30;;;5.53;;
55330;SDS011;58851;42.984;20.336;2023-05-10T01:53:38;7.78;;;5.43;;
55330;SDS011;58851;42.984;20.336;2023-05-10T01:56:05;8.88;;;5.78;;
55330;SDS011;58851;42.984;20.336;2023-05-10T01:58:33;6.60;;;4.60;;
55330;SDS011;58851;42.984;20.336;2023-05-10T02:01:01;7.00;;;4.80;;
55330;SDS011;58851;42.984;20.336;2023-05-10T02:03:29;8.63;;;4.15;;
55330;SDS011;58851;42.984;20.336;2023-05-10T02:05:57;6.35;;;3.80;;
55330;SDS011;58851;42.984;20.336;2023-05-10T02:08:24;7.40;;;4.10;;
55330;SDS011;58851;42.984;20.336;2023-05-10T02:10:52;6.82;;;4.45;;
55330;SDS011;58851;42.984;20.336;2023-05-10T02:13:19;9.45;;;5.85;;
55330;SDS011;58851;42.984;20.336;2023-05-10T02:15:46;10.05;;;6.25;;
55330;SDS011;58851;42.984;20.336;2023-05-10T02:18:13;9.07;;;5.85;;
55330;SDS011;58851;42.984;20.336;2023-05-10T02:20:40;7.05;;;4.70;;
55330;SDS011;58851;42.984;20.336;2023-05-10T02:23:08;9.32;;;6.22;;
55330;SDS011;58851;42.984;20.336;2023-05-10T02:25:36;9.95;;;5.65;;
55330;SDS011;58851;42.984;20.336;2023-05-10T02:28:04;6.95;;;4.50;;
55330;SDS011;58851;42.984;20.336;2023-05-10T02:30:32;6.47;;;4.05;;
55330;SDS011;58851;42.984;20.336;2023-05-10T02:33:00;8.20;;;4.20;;
55330;SDS011;58851;42.984;20.336;2023-05-10T02:35:28;6.22;;;3.83;;
55330;SDS011;58851;42.984;20.336;2023-05-10T02:37:55;5.88;;;3.80;;
55330;SDS011;58851;42.984;20.336;2023-05-10T02:40:23;6.03;;;3.53;;
55330;SDS011;58851;42.984;20.336;2023-05-10T02:42:52;7.43;;;4.32;;
55330;SDS011;58851;42.984;20.336;2023-05-10T02:45:20;6.68;;;5.25;;
55330;SDS011;58851;42.984;20.336;2023-05-10T02:47:49;8.52;;;4.75;;
55330;SDS011;58851;42.984;20.336;2023-05-10T02:50:15;5.18;;;4.00;;
55330;SDS011;58851;42.984;20.336;2023-05-10T02:52:46;7.63;;;3.50;;
55330;SDS011;58851;42.984;20.336;2023-05-10T02:55:15;5.20;;;3.72;;
55330;SDS011;58851;42.984;20.336;2023-05-10T02:58:00;5.85;;;3.72;;
55330;SDS011;58851;42.984;20.336;2023-05-10T03:00:27;6.10;;;3.92;;
55330;SDS011;58851;42.984;20.336;2023-05-10T03:02:53;6.00;;;3.95;;
55330;SDS011;58851;42.984;20.336;2023-05-10T03:05:19;5.55;;;4.05;;
55330;SDS011;58851;42.984;20.336;2023-05-10T03:07:46;5.97;;;3.50;;
55330;SDS011;58851;42.984;20.336;2023-05-10T03:10:12;8.30;;;4.68;;
55330;SDS011;58851;42.984;20.336;2023-05-10T03:15:17;6.40;;;4.63;;
55330;SDS011;58851;42.984;20.336;2023-05-10T03:18:09;6.97;;;4.07;;
55330;SDS011;58851;42.984;20.336;2023-05-10T03:20:44;6.60;;;3.72;;
55330;SDS011;58851;42.984;20.336;2023-05-10T03:25:55;6.45;;;4.53;;
55330;SDS011;58851;42.984;20.336;2023-05-10T03:28:21;8.85;;;4.90;;
55330;SDS011;58851;42.984;20.336;2023-05-10T03:30:52;6.53;;;4.22;;
55330;SDS011;58851;42.984;20.336;2023-05-10T03:33:19;7.25;;;4.32;;
55330;SDS011;58851;42.984;20.336;2023-05-10T03:35:45;6.90;;;4.03;;
55330;SDS011;58851;42.984;20.336;2023-05-10T03:38:11;4.93;;;3.95;;
55330;SDS011;58851;42.984;20.336;2023-05-10T03:40:37;6.28;;;3.80;;
55330;SDS011;58851;42.984;20.336;2023-05-10T03:43:04;6.18;;;4.47;;
55330;SDS011;58851;42.984;20.336;2023-05-10T03:45:30;8.07;;;4.22;;
55330;SDS011;58851;42.984;20.336;2023-05-10T03:47:56;7.88;;;4.65;;
55330;SDS011;58851;42.984;20.336;2023-05-10T03:50:22;8.55;;;5.07;;
55330;SDS011;58851;42.984;20.336;2023-05-10T03:52:48;7.65;;;5.97;;
55330;SDS011;58851;42.984;20.336;2023-05-10T03:55:14;9.15;;;5.97;;
55330;SDS011;58851;42.984;20.336;2023-05-10T03:57:41;10.95;;;6.80;;
55330;SDS011;58851;42.984;20.336;2023-05-10T04:00:07;7.63;;;5.20;;
55330;SDS011;58851;42.984;20.336;2023-05-10T04:02:33;12.23;;;7.00;;
55330;SDS011;58851;42.984;20.336;2023-05-10T04:04:59;12.70;;;5.43;;
55330;SDS011;58851;42.984;20.336;2023-05-10T04:07:25;8.32;;;5.75;;
55330;SDS011;58851;42.984;20.336;2023-05-10T04:09:51;11.65;;;7.32;;
55330;SDS011;58851;42.984;20.336;2023-05-10T04:12:17;12.20;;;8.02;;
55330;SDS011;58851;42.984;20.336;2023-05-10T04:14:43;16.60;;;8.63;;
55330;SDS011;58851;42.984;20.336;2023-05-10T04:17:09;10.07;;;7.13;;
55330;SDS011;58851;42.984;20.336;2023-05-10T04:19:35;6.45;;;3.97;;
55330;SDS011;58851;42.984;20.336;2023-05-10T04:22:02;6.78;;;5.05;;
55330;SDS011;58851;42.984;20.336;2023-05-10T04:24:28;13.38;;;8.57;;
55330;SDS011;58851;42.984;20.336;2023-05-10T04:26:54;11.15;;;7.57;;
55330;SDS011;58851;42.984;20.336;2023-05-10T04:29:20;4.60;;;3.00;;
55330;SDS011;58851;42.984;20.336;2023-05-10T04:31:46;6.38;;;4.00;;
55330;SDS011;58851;42.984;20.336;2023-05-10T04:34:12;8.13;;;4.18;;
55330;SDS011;58851;42.984;20.336;2023-05-10T04:36:38;4.47;;;3.25;;
55330;SDS011;58851;42.984;20.336;2023-05-10T04:39:03;5.10;;;3.17;;
55330;SDS011;58851;42.984;20.336;2023-05-10T04:41:29;5.20;;;3.35;;
55330;SDS011;58851;42.984;20.336;2023-05-10T04:43:55;4.70;;;3.00;;
55330;SDS011;58851;42.984;20.336;2023-05-10T04:46:21;8.70;;;3.35;;
55330;SDS011;58851;42.984;20.336;2023-05-10T04:48:47;4.65;;;2.92;;
55330;SDS011;58851;42.984;20.336;2023-05-10T04:51:13;4.38;;;2.70;;
55330;SDS011;58851;42.984;20.336;2023-05-10T04:53:39;5.13;;;2.72;;
55330;SDS011;58851;42.984;20.336;2023-05-10T04:56:04;4.43;;;3.03;;
55330;SDS011;58851;42.984;20.336;2023-05-10T04:58:31;4.45;;;2.92;;
55330;SDS011;58851;42.984;20.336;2023-05-10T05:00:56;6.10;;;3.30;;
55330;SDS011;58851;42.984;20.336;2023-05-10T05:03:22;4.90;;;3.28;;
55330;SDS011;58851;42.984;20.336;2023-05-10T05:05:48;4.93;;;2.92;;
55330;SDS011;58851;42.984;20.336;2023-05-10T05:08:14;5.20;;;3.38;;
55330;SDS011;58851;42.984;20.336;2023-05-10T05:10:39;10.38;;;4.03;;
55330;SDS011;58851;42.984;20.336;2023-05-10T05:13:05;5.60;;;3.50;;
55330;SDS011;58851;42.984;20.336;2023-05-10T05:15:31;5.13;;;2.95;;
55330;SDS011;58851;42.984;20.336;2023-05-10T05:17:57;5.53;;;3.92;;
55330;SDS011;58851;42.984;20.336;2023-05-10T05:20:22;7.20;;;3.20;;
55330;SDS011;58851;42.984;20.336;2023-05-10T05:22:48;8.57;;;3.00;;
55330;SDS011;58851;42.984;20.336;2023-05-10T05:25:14;7.70;;;5.47;;
55330;SDS011;58851;42.984;20.336;2023-05-10T05:27:40;4.63;;;3.08;;
55330;SDS011;58851;42.984;20.336;2023-05-10T05:30:07;3.95;;;2.28;;
55330;SDS011;58851;42.984;20.336;2023-05-10T05:32:33;5.18;;;2.40;;
55330;SDS011;58851;42.984;20.336;2023-05-10T05:34:59;3.45;;;2.22;;
55330;SDS011;58851;42.984;20.336;2023-05-10T05:37:24;3.47;;;2.13;;
55330;SDS011;58851;42.984;20.336;2023-05-10T05:39:50;3.58;;;2.20;;
55330;SDS011;58851;42.984;20.336;2023-05-10T05:42:16;4.55;;;2.90;;
55330;SDS011;58851;42.984;20.336;2023-05-10T05:44:43;5.43;;;3.10;;
55330;SDS011;58851;42.984;20.336;2023-05-10T05:47:09;12.27;;;10.93;;
55330;SDS011;58851;42.984;20.336;2023-05-10T05:49:35;12.35;;;10.73;;
55330;SDS011;58851;42.984;20.336;2023-05-10T05:52:02;15.73;;;10.38;;
55330;SDS011;58851;42.984;20.336;2023-05-10T05:54:28;13.77;;;7.75;;
55330;SDS011;58851;42.984;20.336;2023-05-10T05:56:55;10.10;;;9.10;;
55330;SDS011;58851;42.984;20.336;2023-05-10T05:59:22;7.65;;;6.25;;
55330;SDS011;58851;42.984;20.336;2023-05-10T06:01:47;6.65;;;4.57;;
55330;SDS011;58851;42.984;20.336;2023-05-10T06:04:14;4.03;;;2.78;;
55330;SDS011;58851;42.984;20.336;2023-05-10T06:06:39;4.30;;;2.50;;
55330;SDS011;58851;42.984;20.336;2023-05-10T06:09:05;5.38;;;2.78;;
55330;SDS011;58851;42.984;20.336;2023-05-10T06:11:31;13.52;;;9.40;;
55330;SDS011;58851;42.984;20.336;2023-05-10T06:13:57;6.97;;;4.65;;
55330;SDS011;58851;42.984;20.336;2023-05-10T06:16:24;25.20;;;14.95;;
55330;SDS011;58851;42.984;20.336;2023-05-10T06:18:50;6.97;;;4.25;;
55330;SDS011;58851;42.984;20.336;2023-05-10T06:21:16;9.18;;;6.10;;
55330;SDS011;58851;42.984;20.336;2023-05-10T06:23:41;14.85;;;9.65;;
55330;SDS011;58851;42.984;20.336;2023-05-10T06:26:07;12.45;;;9.30;;
55330;SDS011;58851;42.984;20.336;2023-05-10T06:28:33;11.85;;;8.35;;
55330;SDS011;58851;42.984;20.336;2023-05-10T06:30:59;4.90;;;3.40;;
55330;SDS011;58851;42.984;20.336;2023-05-10T06:33:25;3.70;;;2.60;;
55330;SDS011;58851;42.984;20.336;2023-05-10T06:35:51;6.28;;;2.33;;
55330;SDS011;58851;42.984;20.336;2023-05-10T06:38:17;4.35;;;2.53;;
55330;SDS011;58851;42.984;20.336;2023-05-10T06:40:43;4.65;;;2.10;;
55330;SDS011;58851;42.984;20.336;2023-05-10T06:43:09;4.22;;;2.88;;
55330;SDS011;58851;42.984;20.336;2023-05-10T06:45:35;4.63;;;3.17;;
55330;SDS011;58851;42.984;20.336;2023-05-10T06:48:01;6.28;;;4.05;;
55330;SDS011;58851;42.984;20.336;2023-05-10T06:50:27;7.05;;;5.35;;
55330;SDS011;58851;42.984;20.336;2023-05-10T06:52:53;10.30;;;4.25;;
55330;SDS011;58851;42.984;20.336;2023-05-10T06:55:20;6.15;;;2.80;;
55330;SDS011;58851;42.984;20.336;2023-05-10T06:57:46;4.60;;;3.00;;
55330;SDS011;58851;42.984;20.336;2023-05-10T07:00:13;5.32;;;3.10;;
55330;SDS011;58851;42.984;20.336;2023-05-10T07:02:39;16.92;;;8.57;;
55330;SDS011;58851;42.984;20.336;2023-05-10T07:05:05;14.20;;;6.82;;
55330;SDS011;58851;42.984;20.336;2023-05-10T07:07:31;4.50;;;3.05;;
55330;SDS011;58851;42.984;20.336;2023-05-10T07:09:57;29.50;;;18.88;;
55330;SDS011;58851;42.984;20.336;2023-05-10T07:12:23;9.45;;;5.93;;
55330;SDS011;58851;42.984;20.336;2023-05-10T07:14:49;16.33;;;7.80;;
55330;SDS011;58851;42.984;20.336;2023-05-10T07:17:15;20.08;;;16.13;;
55330;SDS011;58851;42.984;20.336;2023-05-10T07:19:41;12.93;;;9.20;;
55330;SDS011;58851;42.984;20.336;2023-05-10T07:22:06;10.15;;;5.22;;
55330;SDS011;58851;42.984;20.336;2023-05-10T07:24:33;7.57;;;3.80;;
55330;SDS011;58851;42.984;20.336;2023-05-10T07:26:59;4.80;;;3.53;;
55330;SDS011;58851;42.984;20.336;2023-05-10T07:29:25;5.50;;;3.42;;
55330;SDS011;58851;42.984;20.336;2023-05-10T07:31:51;3.85;;;2.58;;
55330;SDS011;58851;42.984;20.336;2023-05-10T07:34:17;3.25;;;2.00;;
55330;SDS011;58851;42.984;20.336;2023-05-10T07:36:43;3.92;;;2.60;;
55330;SDS011;58851;42.984;20.336;2023-05-10T07:39:09;5.70;;;3.55;;
55330;SDS011;58851;42.984;20.336;2023-05-10T07:41:34;3.97;;;2.60;;
55330;SDS011;58851;42.984;20.336;2023-05-10T07:44:02;4.85;;;3.47;;
55330;SDS011;58851;42.984;20.336;2023-05-10T07:46:28;6.65;;;5.07;;
55330;SDS011;58851;42.984;20.336;2023-05-10T07:48:54;7.78;;;5.57;;
55330;SDS011;58851;42.984;20.336;2023-05-10T07:51:20;9.27;;;5.05;;
55330;SDS011;58851;42.984;20.336;2023-05-10T07:53:46;6.70;;;5.45;;
55330;SDS011;58851;42.984;20.336;2023-05-10T07:56:23;11.05;;;7.97;;
55330;SDS011;58851;42.984;20.336;2023-05-10T07:58:52;10.40;;;5.82;;
55330;SDS011;58851;42.984;20.336;2023-05-10T08:01:19;8.00;;;6.10;;
55330;SDS011;58851;42.984;20.336;2023-05-10T08:03:45;7.53;;;4.50;;
55330;SDS011;58851;42.984;20.336;2023-05-10T08:06:11;6.70;;;6.00;;
55330;SDS011;58851;42.984;20.336;2023-05-10T08:08:37;9.95;;;4.43;;
55330;SDS011;58851;42.984;20.336;2023-05-10T08:11:03;5.28;;;3.30;;
55330;SDS011;58851;42.984;20.336;2023-05-10T08:13:29;6.55;;;3.90;;
55330;SDS011;58851;42.984;20.336;2023-05-10T08:15:56;8.77;;;5.80;;
55330;SDS011;58851;42.984;20.336;2023-05-10T08:18:22;6.82;;;2.97;;
55330;SDS011;58851;42.984;20.336;2023-05-10T08:20:48;10.52;;;5.40;;
55330;SDS011;58851;42.984;20.336;2023-05-10T08:23:13;6.70;;;5.35;;
55330;SDS011;58851;42.984;20.336;2023-05-10T08:25:40;27.15;;;15.45;;
55330;SDS011;58851;42.984;20.336;2023-05-10T08:28:06;8.15;;;4.80;;
55330;SDS011;58851;42.984;20.336;2023-05-10T08:30:32;36.42;;;22.83;;
55330;SDS011;58851;42.984;20.336;2023-05-10T08:32:57;19.45;;;12.38;;
55330;SDS011;58851;42.984;20.336;2023-05-10T08:35:23;15.85;;;11.85;;
55330;SDS011;58851;42.984;20.336;2023-05-10T08:37:50;6.47;;;4.63;;
55330;SDS011;58851;42.984;20.336;2023-05-10T08:40:16;6.70;;;4.65;;
55330;SDS011;58851;42.984;20.336;2023-05-10T08:42:48;9.10;;;5.05;;
55330;SDS011;58851;42.984;20.336;2023-05-10T08:45:21;6.07;;;4.60;;
55330;SDS011;58851;42.984;20.336;2023-05-10T08:47:49;12.48;;;8.10;;
55330;SDS011;58851;42.984;20.336;2023-05-10T08:50:17;7.90;;;6.07;;
55330;SDS011;58851;42.984;20.336;2023-05-10T08:52:45;9.77;;;5.97;;
55330;SDS011;58851;42.984;20.336;2023-05-10T08:55:13;8.93;;;6.53;;
55330;SDS011;58851;42.984;20.336;2023-05-10T08:57:40;8.65;;;5.32;;
55330;SDS011;58851;42.984;20.336;2023-05-10T09:00:06;6.47;;;3.38;;
55330;SDS011;58851;42.984;20.336;2023-05-10T09:02:33;6.40;;;3.95;;
55330;SDS011;58851;42.984;20.336;2023-05-10T09:05:00;14.63;;;6.35;;
55330;SDS011;58851;42.984;20.336;2023-05-10T09:07:26;7.93;;;4.22;;
55330;SDS011;58851;42.984;20.336;2023-05-10T09:09:52;5.93;;;3.38;;
55330;SDS011;58851;42.984;20.336;2023-05-10T09:12:19;7.53;;;3.13;;
55330;SDS011;58851;42.984;20.336;2023-05-10T09:14:45;6.75;;;3.47;;
55330;SDS011;58851;42.984;20.336;2023-05-10T09:17:12;8.02;;;4.90;;
55330;SDS011;58851;42.984;20.336;2023-05-10T09:19:38;6.82;;;5.00;;
55330;SDS011;58851;42.984;20.336;2023-05-10T09:22:04;5.75;;;4.30;;
55330;SDS011;58851;42.984;20.336;2023-05-10T09:24:29;6.55;;;5.45;;
55330;SDS011;58851;42.984;20.336;2023-05-10T09:26:56;10.10;;;5.90;;
55330;SDS011;58851;42.984;20.336;2023-05-10T09:29:23;8.57;;;6.00;;
55330;SDS011;58851;42.984;20.336;2023-05-10T09:31:50;7.30;;;4.78;;
55330;SDS011;58851;42.984;20.336;2023-05-10T09:34:20;16.52;;;8.55;;
55330;SDS011;58851;42.984;20.336;2023-05-10T09:37:00;8.23;;;3.97;;
55330;SDS011;58851;42.984;20.336;2023-05-10T09:39:34;29.42;;;15.02;;
55330;SDS011;58851;42.984;20.336;2023-05-10T09:42:05;7.97;;;4.43;;
55330;SDS011;58851;42.984;20.336;2023-05-10T09:44:33;8.70;;;4.82;;
55330;SDS011;58851;42.984;20.336;2023-05-10T09:47:00;8.40;;;6.43;;
55330;SDS011;58851;42.984;20.336;2023-05-10T09:49:26;4.00;;;2.75;;
55330;SDS011;58851;42.984;20.336;2023-05-10T09:52:02;8.13;;;4.30;;
55330;SDS011;58851;42.984;20.336;2023-05-10T09:54:29;5.35;;;4.05;;
55330;SDS011;58851;42.984;20.336;2023-05-10T09:56:55;5.57;;;3.28;;
55330;SDS011;58851;42.984;20.336;2023-05-10T09:59:21;9.85;;;4.60;;
55330;SDS011;58851;42.984;20.336;2023-05-10T10:01:52;15.05;;;3.72;;
55330;SDS011;58851;42.984;20.336;2023-05-10T10:04:21;4.82;;;3.28;;
55330;SDS011;58851;42.984;20.336;2023-05-10T10:06:47;10.52;;;8.35;;
55330;SDS011;58851;42.984;20.336;2023-05-10T10:09:28;6.22;;;4.88;;
55330;SDS011;58851;42.984;20.336;2023-05-10T10:11:54;6.82;;;5.38;;
55330;SDS011;58851;42.984;20.336;2023-05-10T10:14:21;5.10;;;3.70;;
55330;SDS011;58851;42.984;20.336;2023-05-10T10:16:49;10.60;;;5.28;;
55330;SDS011;58851;42.984;20.336;2023-05-10T10:19:16;5.72;;;4.38;;
55330;SDS011;58851;42.984;20.336;2023-05-10T10:21:46;7.45;;;4.32;;
55330;SDS011;58851;42.984;20.336;2023-05-10T10:24:12;5.05;;;2.88;;
55330;SDS011;58851;42.984;20.336;2023-05-10T10:26:38;4.78;;;3.40;;
55330;SDS011;58851;42.984;20.336;2023-05-10T10:29:19;7.65;;;5.40;;
55330;SDS011;58851;42.984;20.336;2023-05-10T10:32:09;6.18;;;4.05;;
55330;SDS011;58851;42.984;20.336;2023-05-10T10:34:45;9.00;;;5.38;;
55330;SDS011;58851;42.984;20.336;2023-05-10T10:37:12;6.03;;;3.58;;
55330;SDS011;58851;42.984;20.336;2023-05-10T10:39:37;5.85;;;3.45;;
55330;SDS011;58851;42.984;20.336;2023-05-10T10:42:04;8.68;;;3.92;;
55330;SDS011;58851;42.984;20.336;2023-05-10T10:49:27;5.43;;;3.10;;
55330;SDS011;58851;42.984;20.336;2023-05-10T10:57:18;16.65;;;11.43;;
55330;SDS011;58851;42.984;20.336;2023-05-10T10:59:46;18.27;;;9.30;;
55330;SDS011;58851;42.984;20.336;2023-05-10T11:07:58;8.55;;;5.53;;
55330;SDS011;58851;42.984;20.336;2023-05-10T11:10:26;14.02;;;5.95;;
55330;SDS011;58851;42.984;20.336;2023-05-10T11:13:10;4.00;;;2.40;;
55330;SDS011;58851;42.984;20.336;2023-05-10T11:15:37;10.15;;;5.40;;
55330;SDS011;58851;42.984;20.336;2023-05-10T11:18:17;7.85;;;3.95;;
55330;SDS011;58851;42.984;20.336;2023-05-10T11:23:15;11.90;;;4.85;;
55330;SDS011;58851;42.984;20.336;2023-05-10T11:25:43;8.40;;;4.60;;
55330;SDS011;58851;42.984;20.336;2023-05-10T11:28:10;7.50;;;4.70;;
55330;SDS011;58851;42.984;20.336;2023-05-10T11:30:40;10.75;;;7.40;;
55330;SDS011;58851;42.984;20.336;2023-05-10T11:33:08;6.95;;;5.22;;
55330;SDS011;58851;42.984;20.336;2023-05-10T11:35:38;7.35;;;5.00;;
55330;SDS011;58851;42.984;20.336;2023-05-10T11:38:09;18.50;;;4.10;;
55330;SDS011;58851;42.984;20.336;2023-05-10T11:40:36;4.32;;;3.22;;
55330;SDS011;58851;42.984;20.336;2023-05-10T11:43:03;6.50;;;3.80;;
55330;SDS011;58851;42.984;20.336;2023-05-10T11:45:31;5.07;;;3.30;;
55330;SDS011;58851;42.984;20.336;2023-05-10T11:47:58;5.88;;;3.13;;
55330;SDS011;58851;42.984;20.336;2023-05-10T11:50:25;6.65;;;3.25;;
55330;SDS011;58851;42.984;20.336;2023-05-10T11:52:54;5.93;;;3.75;;
55330;SDS011;58851;42.984;20.336;2023-05-10T11:55:21;5.60;;;4.22;;
55330;SDS011;58851;42.984;20.336;2023-05-10T11:57:52;7.28;;;4.40;;
55330;SDS011;58851;42.984;20.336;2023-05-10T12:00:19;10.50;;;4.95;;
55330;SDS011;58851;42.984;20.336;2023-05-10T12:02:46;5.00;;;3.63;;
55330;SDS011;58851;42.984;20.336;2023-05-10T12:05:12;8.32;;;4.25;;
55330;SDS011;58851;42.984;20.336;2023-05-10T12:07:38;8.45;;;5.03;;
55330;SDS011;58851;42.984;20.336;2023-05-10T12:10:05;11.77;;;5.35;;
55330;SDS011;58851;42.984;20.336;2023-05-10T12:12:39;27.20;;;17.52;;
55330;SDS011;58851;42.984;20.336;2023-05-10T12:15:19;14.07;;;10.90;;
55330;SDS011;58851;42.984;20.336;2023-05-10T12:17:47;21.40;;;11.05;;
55330;SDS011;58851;42.984;20.336;2023-05-10T12:20:16;30.98;;;19.63;;
55330;SDS011;58851;42.984;20.336;2023-05-10T12:22:50;31.00;;;20.05;;
55330;SDS011;58851;42.984;20.336;2023-05-10T12:25:18;21.77;;;11.38;;
55330;SDS011;58851;42.984;20.336;2023-05-10T12:27:55;15.15;;;8.75;;
55330;SDS011;58851;42.984;20.336;2023-05-10T12:30:22;14.40;;;9.50;;
55330;SDS011;58851;42.984;20.336;2023-05-10T12:33:02;12.45;;;9.45;;
55330;SDS011;58851;42.984;20.336;2023-05-10T12:35:46;13.80;;;7.22;;
55330;SDS011;58851;42.984;20.336;2023-05-10T12:38:28;18.40;;;12.65;;
55330;SDS011;58851;42.984;20.336;2023-05-10T12:41:00;13.75;;;9.70;;
55330;SDS011;58851;42.984;20.336;2023-05-10T12:43:27;8.50;;;6.72;;
55330;SDS011;58851;42.984;20.336;2023-05-10T12:45:53;11.63;;;6.38;;
55330;SDS011;58851;42.984;20.336;2023-05-10T12:48:19;12.80;;;8.95;;
55330;SDS011;58851;42.984;20.336;2023-05-10T12:50:45;8.18;;;6.25;;
55330;SDS011;58851;42.984;20.336;2023-05-10T12:53:12;11.57;;;6.50;;
55330;SDS011;58851;42.984;20.336;2023-05-10T12:55:40;11.65;;;7.93;;
55330;SDS011;58851;42.984;20.336;2023-05-10T12:58:09;13.05;;;8.57;;
55330;SDS011;58851;42.984;20.336;2023-05-10T13:00:35;10.50;;;7.05;;
55330;SDS011;58851;42.984;20.336;2023-05-10T13:03:03;7.97;;;5.70;;
55330;SDS011;58851;42.984;20.336;2023-05-10T13:05:32;9.25;;;6.03;;
55330;SDS011;58851;42.984;20.336;2023-05-10T13:07:58;10.18;;;6.75;;
55330;SDS011;58851;42.984;20.336;2023-05-10T13:10:24;15.00;;;9.48;;
55330;SDS011;58851;42.984;20.336;2023-05-10T13:12:50;12.25;;;8.07;;
55330;SDS011;58851;42.984;20.336;2023-05-10T13:15:16;12.05;;;8.70;;
55330;SDS011;58851;42.984;20.336;2023-05-10T13:17:42;15.27;;;8.60;;
55330;SDS011;58851;42.984;20.336;2023-05-10T13:20:08;8.90;;;6.28;;
55330;SDS011;58851;42.984;20.336;2023-05-10T13:22:35;11.70;;;7.03;;
55330;SDS011;58851;42.984;20.336;2023-05-10T13:25:01;17.27;;;7.07;;
55330;SDS011;58851;42.984;20.336;2023-05-10T13:27:27;11.98;;;6.97;;
55330;SDS011;58851;42.984;20.336;2023-05-10T13:29:52;14.65;;;10.25;;
55330;SDS011;58851;42.984;20.336;2023-05-10T13:32:19;12.93;;;8.32;;
55330;SDS011;58851;42.984;20.336;2023-05-10T13:34:45;11.43;;;7.38;;
55330;SDS011;58851;42.984;20.336;2023-05-10T13:37:11;15.43;;;8.45;;
55330;SDS011;58851;42.984;20.336;2023-05-10T13:39:37;15.43;;;10.32;;
55330;SDS011;58851;42.984;20.336;2023-05-10T13:42:03;15.05;;;8.85;;
55330;SDS011;58851;42.984;20.336;2023-05-10T13:44:29;17.38;;;8.25;;
55330;SDS011;58851;42.984;20.336;2023-05-10T13:46:55;20.80;;;12.10;;
55330;SDS011;58851;42.984;20.336;2023-05-10T13:49:21;17.10;;;10.52;;
55330;SDS011;58851;42.984;20.336;2023-05-10T13:51:47;14.57;;;9.55;;
55330;SDS011;58851;42.984;20.336;2023-05-10T13:54:13;18.42;;;12.02;;
55330;SDS011;58851;42.984;20.336;2023-05-10T13:56:39;15.38;;;8.52;;
55330;SDS011;58851;42.984;20.336;2023-05-10T13:59:07;13.27;;;10.13;;
55330;SDS011;58851;42.984;20.336;2023-05-10T14:01:33;23.42;;;12.23;;
55330;SDS011;58851;42.984;20.336;2023-05-10T14:03:59;14.45;;;9.68;;
55330;SDS011;58851;42.984;20.336;2023-05-10T14:06:25;14.70;;;11.70;;
55330;SDS011;58851;42.984;20.336;2023-05-10T14:08:52;17.10;;;12.27;;
55330;SDS011;58851;42.984;20.336;2023-05-10T14:11:18;26.90;;;10.13;;
55330;SDS011;58851;42.984;20.336;2023-05-10T14:13:45;20.75;;;16.25;;
55330;SDS011;58851;42.984;20.336;2023-05-10T14:16:11;14.23;;;12.00;;
55330;SDS011;58851;42.984;20.336;2023-05-10T14:18:37;16.80;;;12.95;;
55330;SDS011;58851;42.984;20.336;2023-05-10T14:21:03;16.08;;;10.75;;
55330;SDS011;58851;42.984;20.336;2023-05-10T14:23:28;14.35;;;11.05;;
55330;SDS011;58851;42.984;20.336;2023-05-10T14:25:55;15.00;;;11.88;;
55330;SDS011;58851;42.984;20.336;2023-05-10T14:28:21;17.98;;;14.88;;
55330;SDS011;58851;42.984;20.336;2023-05-10T14:30:48;12.50;;;11.18;;
55330;SDS011;58851;42.984;20.336;2023-05-10T14:33:14;14.15;;;11.05;;
55330;SDS011;58851;42.984;20.336;2023-05-10T14:35:41;14.27;;;12.27;;
55330;SDS011;58851;42.984;20.336;2023-05-10T14:38:07;32.90;;;27.90;;
55330;SDS011;58851;42.984;20.336;2023-05-10T14:40:33;19.63;;;16.15;;
55330;SDS011;58851;42.984;20.336;2023-05-10T14:42:59;15.80;;;12.77;;
55330;SDS011;58851;42.984;20.336;2023-05-10T14:45:25;15.57;;;12.57;;
55330;SDS011;58851;42.984;20.336;2023-05-10T14:47:51;14.82;;;11.73;;
55330;SDS011;58851;42.984;20.336;2023-05-10T14:50:17;19.35;;;13.65;;
55330;SDS011;58851;42.984;20.336;2023-05-10T14:52:43;16.65;;;14.70;;
55330;SDS011;58851;42.984;20.336;2023-05-10T14:55:09;16.80;;;12.85;;
55330;SDS011;58851;42.984;20.336;2023-05-10T14:57:35;21.77;;;16.80;;
55330;SDS011;58851;42.984;20.336;2023-05-10T15:00:03;30.02;;;23.98;;
55330;SDS011;58851;42.984;20.336;2023-05-10T15:02:30;26.88;;;21.27;;
55330;SDS011;58851;42.984;20.336;2023-05-10T15:04:56;20.65;;;14.98;;
55330;SDS011;58851;42.984;20.336;2023-05-10T15:07:22;20.73;;;14.85;;